createdAt,value
2022-08-27T00:02:40.669Z,18.60
2022-08-27T00:05:29.432Z,18.60
2022-08-27T00:08:16.720Z,18.60
2022-08-27T00:11:04.460Z,18.60
2022-08-27T00:13:52.594Z,18.60
2022-08-27T00:16:40.468Z,18.60
2022-08-27T00:19:28.296Z,18.60
2022-08-27T00:22:16.857Z,18.50
2022-08-27T00:25:05.627Z,18.50
2022-08-27T00:27:53.787Z,18.50
2022-08-27T00:30:41.580Z,18.50
2022-08-27T00:33:29.120Z,18.40
2022-08-27T00:36:16.670Z,18.40
2022-08-27T00:39:05.848Z,18.40
2022-08-27T00:41:53.372Z,18.30
2022-08-27T00:44:41.225Z,18.30
2022-08-27T00:47:32.261Z,18.30
2022-08-27T00:50:24.331Z,18.30
2022-08-27T00:53:15.571Z,18.30
2022-08-27T00:56:11.442Z,18.40
2022-08-27T00:58:59.675Z,18.30
2022-08-27T01:02:02.138Z,18.30
2022-08-27T01:04:54.247Z,18.30
2022-08-27T01:07:45.487Z,18.30
2022-08-27T01:10:33.349Z,18.30
2022-08-27T01:13:57.093Z,18.30
2022-08-27T01:16:37.263Z,18.30
2022-08-27T01:19:31.340Z,18.30
2022-08-27T01:22:30.193Z,18.30
2022-08-27T01:25:22.023Z,18.30
2022-08-27T01:28:10.714Z,18.30
2022-08-27T01:30:59.345Z,18.30
2022-08-27T01:33:57.581Z,18.30
2022-08-27T01:36:45.334Z,18.40
2022-08-27T01:39:33.141Z,18.40
2022-08-27T01:42:26.134Z,18.40
2022-08-27T01:45:17.563Z,18.50
2022-08-27T01:48:08.017Z,18.50
2022-08-27T01:50:56.258Z,18.50
2022-08-27T01:53:45.341Z,18.50
2022-08-27T01:56:32.852Z,18.50
2022-08-27T01:59:22.138Z,18.50
2022-08-27T02:02:11.967Z,18.50
2022-08-27T02:05:00.087Z,18.50
2022-08-27T02:07:48.043Z,18.50
2022-08-27T02:10:38.632Z,18.50
2022-08-27T02:13:26.183Z,18.50
2022-08-27T02:16:15.502Z,18.50
2022-08-27T02:19:03.137Z,18.60
2022-08-27T02:21:51.092Z,18.50
2022-08-27T02:24:38.865Z,18.50
2022-08-27T02:27:26.696Z,18.50
2022-08-27T02:30:17.475Z,18.50
2022-08-27T02:33:06.980Z,18.40
2022-08-27T02:35:54.516Z,18.40
2022-08-27T02:38:42.362Z,18.50
2022-08-27T02:41:30.198Z,18.40
2022-08-27T02:44:18.961Z,18.40
2022-08-27T02:47:07.409Z,18.40
2022-08-27T02:49:56.470Z,18.40
2022-08-27T02:52:46.363Z,18.40
2022-08-27T02:55:34.786Z,18.40
2022-08-27T02:58:25.204Z,18.40
2022-08-27T03:01:13.811Z,18.40
2022-08-27T03:04:02.504Z,18.40
2022-08-27T03:06:52.025Z,18.40
2022-08-27T03:09:40.249Z,18.40
2022-08-27T03:12:28.187Z,18.40
2022-08-27T03:15:19.135Z,18.40
2022-08-27T03:18:20.833Z,18.40
2022-08-27T03:21:08.633Z,18.40
2022-08-27T03:23:57.641Z,18.40
2022-08-27T03:26:53.956Z,18.50
2022-08-27T03:29:42.630Z,18.40
2022-08-27T03:32:29.994Z,18.50
2022-08-27T03:35:19.323Z,18.50
2022-08-27T03:38:06.980Z,18.50
2022-08-27T03:40:56.012Z,18.60
2022-08-27T03:43:43.682Z,18.50
2022-08-27T03:46:31.365Z,18.50
2022-08-27T03:49:20.393Z,18.60
2022-08-27T03:52:09.729Z,18.60
2022-08-27T03:54:57.678Z,18.60
2022-08-27T03:57:46.906Z,18.60
2022-08-27T04:00:34.559Z,18.60
2022-08-27T04:03:21.988Z,18.50
2022-08-27T04:06:09.429Z,18.50
2022-08-27T04:08:57.698Z,18.60
2022-08-27T04:11:45.083Z,18.60
2022-08-27T04:14:34.129Z,18.60
2022-08-27T04:17:21.769Z,18.70
2022-08-27T04:20:33.893Z,18.60
2022-08-27T04:23:21.153Z,18.70
2022-08-27T04:26:11.222Z,18.70
2022-08-27T04:28:59.480Z,18.70
2022-08-27T04:31:48.490Z,18.70
2022-08-27T04:34:37.178Z,18.70
2022-08-27T04:37:26.175Z,18.70
2022-08-27T04:40:14.512Z,18.70
2022-08-27T04:43:02.675Z,18.70
2022-08-27T04:45:51.655Z,18.70
2022-08-27T04:48:40.530Z,18.70
2022-08-27T04:51:29.348Z,18.70
2022-08-27T04:54:17.929Z,18.70
2022-08-27T04:57:10.811Z,18.70
2022-08-27T04:59:58.700Z,18.70
2022-08-27T05:02:46.382Z,18.70
2022-08-27T05:05:35.392Z,18.70
2022-08-27T05:08:26.042Z,18.80
2022-08-27T05:11:16.317Z,18.80
2022-08-27T05:14:05.342Z,18.80
2022-08-27T05:16:53.341Z,18.80
2022-08-27T05:19:40.527Z,18.90
2022-08-27T05:22:29.787Z,18.80
2022-08-27T05:25:17.765Z,18.90
2022-08-27T05:28:05.737Z,18.90
2022-08-27T05:30:56.199Z,18.90
2022-08-27T05:33:44.596Z,18.90
2022-08-27T05:36:35.469Z,18.90
2022-08-27T05:39:24.918Z,18.90
2022-08-27T05:42:12.848Z,18.90
2022-08-27T05:45:00.820Z,18.90
2022-08-27T05:47:49.011Z,19.00
2022-08-27T05:50:36.935Z,19.00
2022-08-27T05:53:25.230Z,19.00
2022-08-27T05:56:17.542Z,19.00
2022-08-27T05:59:20.014Z,19.00
2022-08-27T06:02:07.394Z,19.00
2022-08-27T06:04:54.041Z,19.00
2022-08-27T06:07:40.679Z,19.00
2022-08-27T06:10:28.546Z,19.10
2022-08-27T06:13:17.756Z,19.10
2022-08-27T06:16:07.316Z,19.10
2022-08-27T06:18:57.440Z,19.20
2022-08-27T06:21:45.441Z,19.30
2022-08-27T06:24:33.190Z,19.30
2022-08-27T06:27:21.459Z,19.40
2022-08-27T06:30:14.619Z,19.50
2022-08-27T06:33:04.814Z,19.50
2022-08-27T06:35:52.591Z,19.60
2022-08-27T06:38:41.177Z,19.70
2022-08-27T06:41:30.306Z,19.70
2022-08-27T06:44:18.516Z,19.80
2022-08-27T06:47:07.766Z,19.80
2022-08-27T06:49:55.999Z,19.90
2022-08-27T06:52:43.616Z,19.90
2022-08-27T06:55:34.221Z,20.00
2022-08-27T06:58:24.931Z,20.00
2022-08-27T07:01:15.709Z,20.10
2022-08-27T07:04:07.882Z,20.20
2022-08-27T07:06:55.759Z,20.20
2022-08-27T07:09:43.346Z,20.20
2022-08-27T07:12:31.039Z,20.10
2022-08-27T07:15:18.383Z,20.10
2022-08-27T07:18:09.847Z,20.10
2022-08-27T07:21:01.257Z,20.10
2022-08-27T07:23:50.482Z,20.10
2022-08-27T07:26:41.341Z,20.10
2022-08-27T07:29:32.262Z,20.10
2022-08-27T07:32:20.055Z,20.10
2022-08-27T07:35:09.695Z,20.10
2022-08-27T07:37:59.182Z,20.10
2022-08-27T07:40:46.558Z,20.20
2022-08-27T07:43:47.652Z,20.20
2022-08-27T07:46:37.921Z,20.20
2022-08-27T07:49:27.951Z,20.20
2022-08-27T07:52:16.400Z,20.20
2022-08-27T07:55:06.005Z,20.30
2022-08-27T07:57:54.747Z,20.30
2022-08-27T08:00:44.543Z,20.40
2022-08-27T08:03:32.996Z,20.50
2022-08-27T08:06:21.077Z,20.50
2022-08-27T08:09:09.267Z,20.60
2022-08-27T08:12:00.677Z,20.80
2022-08-27T08:14:49.451Z,20.80
2022-08-27T08:17:38.600Z,20.90
2022-08-27T08:20:54.203Z,21.00
2022-08-27T08:23:34.729Z,21.00
2022-08-27T08:26:23.250Z,21.00
2022-08-27T08:29:17.889Z,21.00
2022-08-27T08:32:07.193Z,21.00
2022-08-27T08:34:55.230Z,21.00
2022-08-27T08:37:44.875Z,21.00
2022-08-27T08:40:37.716Z,21.00
2022-08-27T08:43:33.576Z,21.00
2022-08-27T08:46:33.292Z,21.00
2022-08-27T08:49:35.196Z,21.00
2022-08-27T08:52:32.043Z,21.10
2022-08-27T08:55:37.208Z,21.10
2022-08-27T08:58:36.201Z,21.20
2022-08-27T09:01:27.824Z,21.20
2022-08-27T09:04:15.649Z,21.20
2022-08-27T09:07:10.971Z,21.20
2022-08-27T09:10:05.012Z,21.40
2022-08-27T09:12:58.679Z,21.40
2022-08-27T09:15:47.241Z,21.40
2022-08-27T09:18:39.224Z,21.40
2022-08-27T09:21:42.446Z,21.50
2022-08-27T09:24:43.965Z,21.50
2022-08-27T09:27:33.175Z,21.50
2022-08-27T09:30:27.419Z,21.50
2022-08-27T09:33:17.788Z,21.50
2022-08-27T09:36:11.666Z,21.60
2022-08-27T09:39:02.955Z,21.60
2022-08-27T09:41:51.388Z,21.60
2022-08-27T09:44:53.416Z,21.70
2022-08-27T09:47:47.432Z,21.70
2022-08-27T09:50:43.518Z,21.80
2022-08-27T09:53:42.591Z,21.80
2022-08-27T09:56:33.345Z,22.00
2022-08-27T09:59:24.995Z,22.10
2022-08-27T10:02:18.496Z,22.20
2022-08-27T10:05:29.355Z,22.30
2022-08-27T10:08:24.784Z,22.50
2022-08-27T10:11:19.838Z,22.50
2022-08-27T10:14:14.638Z,22.60
2022-08-27T10:17:15.868Z,22.70
2022-08-27T10:20:10.913Z,22.80
2022-08-27T10:23:07.421Z,22.90
2022-08-27T10:26:00.482Z,23.00
2022-08-27T10:29:04.542Z,22.90
2022-08-27T10:32:05.912Z,23.00
2022-08-27T10:35:07.216Z,23.00
2022-08-27T10:38:09.061Z,23.10
2022-08-27T10:41:03.900Z,23.20
2022-08-27T10:44:09.412Z,23.30
2022-08-27T10:47:06.957Z,23.40
2022-08-27T10:50:04.235Z,23.50
2022-08-27T10:52:56.880Z,23.60
2022-08-27T10:55:51.559Z,23.70
2022-08-27T10:58:55.800Z,23.90
2022-08-27T11:01:50.916Z,24.20
2022-08-27T11:04:43.259Z,24.40
2022-08-27T11:07:35.392Z,24.70
2022-08-27T11:10:28.021Z,24.80
2022-08-27T11:13:22.019Z,24.90
2022-08-27T11:16:15.645Z,25.00
2022-08-27T11:19:09.261Z,25.10
2022-08-27T11:22:07.168Z,25.20
2022-08-27T11:25:10.441Z,25.30
2022-08-27T11:28:00.926Z,25.40
2022-08-27T11:30:59.816Z,25.50
2022-08-27T11:33:59.945Z,25.70
2022-08-27T11:37:04.282Z,25.70
2022-08-27T11:40:16.151Z,25.80
2022-08-27T11:43:07.720Z,25.90
2022-08-27T11:45:59.849Z,26.10
2022-08-27T11:48:59.501Z,26.20
2022-08-27T11:51:57.912Z,26.30
2022-08-27T11:54:50.154Z,26.30
2022-08-27T11:57:38.183Z,26.40
2022-08-27T12:00:33.871Z,26.40
2022-08-27T12:03:29.311Z,26.40
2022-08-27T12:06:27.707Z,26.30
2022-08-27T12:09:20.780Z,26.30
2022-08-27T12:12:11.891Z,26.30
2022-08-27T12:15:06.677Z,26.00
2022-08-27T12:18:09.078Z,26.00
2022-08-27T12:21:01.820Z,26.10
2022-08-27T12:24:06.777Z,26.00
2022-08-27T12:27:00.424Z,26.10
2022-08-27T12:29:52.854Z,26.20
2022-08-27T12:32:44.564Z,26.30
2022-08-27T12:35:43.003Z,26.40
2022-08-27T12:38:50.606Z,26.40
2022-08-27T12:41:43.926Z,26.40
2022-08-27T12:44:35.137Z,26.40
2022-08-27T12:47:25.326Z,26.50
2022-08-27T12:50:14.078Z,26.60
2022-08-27T12:53:14.017Z,26.60
2022-08-27T12:56:16.509Z,26.70
2022-08-27T12:59:17.543Z,26.80
2022-08-27T13:02:17.207Z,27.00
2022-08-27T13:05:10.554Z,27.10
2022-08-27T13:07:59.487Z,27.20
2022-08-27T13:10:47.397Z,27.30
2022-08-27T13:13:37.356Z,27.30
2022-08-27T13:16:25.303Z,27.30
2022-08-27T13:19:19.648Z,27.40
2022-08-27T13:22:08.409Z,27.40
2022-08-27T13:24:57.946Z,27.40
2022-08-27T13:27:54.409Z,27.40
2022-08-27T13:30:45.573Z,27.60
2022-08-27T13:33:36.328Z,27.60
2022-08-27T13:36:34.579Z,27.80
2022-08-27T13:39:23.780Z,27.80
2022-08-27T13:42:11.614Z,27.80
2022-08-27T13:45:05.871Z,27.80
2022-08-27T13:47:55.263Z,27.80
2022-08-27T13:50:51.989Z,27.80
2022-08-27T13:53:59.963Z,27.90
2022-08-27T13:57:04.686Z,27.90
2022-08-27T13:59:51.269Z,27.90
2022-08-27T14:02:39.142Z,27.90
2022-08-27T14:05:34.187Z,27.90
2022-08-27T14:08:23.341Z,27.90
2022-08-27T14:11:12.133Z,27.80
2022-08-27T14:14:02.251Z,27.70
2022-08-27T14:17:00.270Z,27.70
2022-08-27T14:19:50.177Z,27.70
2022-08-27T14:22:38.384Z,27.80
2022-08-27T14:25:25.763Z,27.80
2022-08-27T14:28:13.322Z,27.90
2022-08-27T14:31:03.072Z,27.90
2022-08-27T14:33:55.257Z,27.90
2022-08-27T14:36:44.374Z,27.90
2022-08-27T14:39:32.246Z,27.80
2022-08-27T14:42:20.178Z,27.70
2022-08-27T14:45:08.847Z,27.70
2022-08-27T14:48:02.094Z,27.60
2022-08-27T14:50:51.082Z,27.60
2022-08-27T14:53:39.748Z,27.60
2022-08-27T14:56:28.043Z,27.50
2022-08-27T14:59:15.954Z,27.60
2022-08-27T15:02:07.168Z,27.50
2022-08-27T15:04:56.498Z,27.50
2022-08-27T15:07:45.727Z,27.60
2022-08-27T15:10:35.507Z,27.60
2022-08-27T15:13:23.196Z,27.60
2022-08-27T15:16:11.603Z,27.60
2022-08-27T15:19:01.036Z,27.60
2022-08-27T15:21:52.403Z,27.50
2022-08-27T15:24:43.841Z,27.50
2022-08-27T15:27:38.590Z,27.50
2022-08-27T15:30:30.602Z,27.40
2022-08-27T15:33:20.682Z,27.30
2022-08-27T15:36:08.981Z,27.30
2022-08-27T15:38:58.219Z,27.20
2022-08-27T15:42:05.179Z,27.20
2022-08-27T15:44:56.835Z,27.10
2022-08-27T15:47:44.674Z,27.00
2022-08-27T15:50:34.569Z,26.90
2022-08-27T15:53:25.867Z,26.80
2022-08-27T15:56:15.066Z,26.80
2022-08-27T15:59:03.252Z,26.70
2022-08-27T16:01:51.141Z,26.60
2022-08-27T16:04:38.797Z,26.50
2022-08-27T16:07:26.738Z,26.50
2022-08-27T16:10:15.261Z,26.40
2022-08-27T16:13:04.858Z,26.40
2022-08-27T16:15:53.683Z,26.30
2022-08-27T16:18:43.749Z,26.30
2022-08-27T16:21:31.864Z,26.20
2022-08-27T16:24:19.906Z,26.10
2022-08-27T16:27:07.427Z,26.00
2022-08-27T16:29:56.625Z,26.00
2022-08-27T16:32:48.236Z,25.90
2022-08-27T16:35:36.109Z,25.80
2022-08-27T16:38:23.722Z,25.70
2022-08-27T16:41:11.617Z,25.60
2022-08-27T16:43:59.364Z,25.50
2022-08-27T16:46:48.432Z,25.50
2022-08-27T16:49:50.200Z,25.40
2022-08-27T16:52:36.519Z,25.30
2022-08-27T16:55:22.977Z,25.20
2022-08-27T16:58:16.565Z,25.20
2022-08-27T17:01:19.741Z,25.10
2022-08-27T17:04:16.349Z,25.10
2022-08-27T17:07:09.194Z,25.00
2022-08-27T17:09:58.081Z,24.80
2022-08-27T17:12:48.617Z,24.80
2022-08-27T17:15:37.509Z,24.70
2022-08-27T17:18:27.881Z,24.60
2022-08-27T17:21:18.601Z,24.60
2022-08-27T17:24:12.474Z,24.60
2022-08-27T17:27:07.337Z,24.50
2022-08-27T17:29:55.283Z,24.50
2022-08-27T17:32:45.165Z,24.40
2022-08-27T17:35:32.648Z,24.40
2022-08-27T17:38:22.655Z,24.30
2022-08-27T17:41:14.126Z,24.30
2022-08-27T17:44:05.775Z,24.20
2022-08-27T17:46:54.970Z,24.10
2022-08-27T17:49:42.720Z,24.00
2022-08-27T17:52:31.416Z,24.00
2022-08-27T17:55:20.837Z,23.90
2022-08-27T17:58:08.900Z,23.90
2022-08-27T18:00:57.157Z,23.80
2022-08-27T18:03:47.999Z,23.70
2022-08-27T18:06:35.911Z,23.60
2022-08-27T18:09:23.704Z,23.60
2022-08-27T18:12:15.402Z,23.60
2022-08-27T18:15:08.261Z,23.50
2022-08-27T18:17:57.479Z,23.50
2022-08-27T18:20:45.789Z,23.40
2022-08-27T18:23:33.839Z,23.40
2022-08-27T18:26:31.752Z,23.30
2022-08-27T18:29:21.000Z,23.30
2022-08-27T18:32:08.858Z,23.20
2022-08-27T18:34:57.424Z,23.20
2022-08-27T18:37:46.515Z,23.10
2022-08-27T18:40:38.688Z,23.10
2022-08-27T18:43:33.154Z,23.10
2022-08-27T18:46:22.411Z,23.10
2022-08-27T18:49:11.370Z,23.00
2022-08-27T18:51:59.274Z,23.00
2022-08-27T18:54:46.706Z,22.90
2022-08-27T18:57:34.605Z,22.90
2022-08-27T19:00:22.955Z,22.90
2022-08-27T19:03:13.457Z,22.80
2022-08-27T19:06:02.287Z,22.80
2022-08-27T19:08:56.821Z,22.80
2022-08-27T19:11:44.498Z,22.80
2022-08-27T19:14:31.900Z,22.70
2022-08-27T19:17:25.888Z,22.70
2022-08-27T19:20:17.591Z,22.70
2022-08-27T19:23:05.695Z,22.70
2022-08-27T19:25:54.814Z,22.60
2022-08-27T19:28:45.345Z,22.60
2022-08-27T19:31:36.380Z,22.60
2022-08-27T19:34:25.666Z,22.50
2022-08-27T19:37:18.904Z,22.50
2022-08-27T19:40:08.069Z,22.50
2022-08-27T19:42:55.937Z,22.40
2022-08-27T19:45:43.898Z,22.40
2022-08-27T19:48:31.621Z,22.30
2022-08-27T19:51:19.030Z,22.30
2022-08-27T19:54:08.108Z,22.30
2022-08-27T19:56:55.816Z,22.20
2022-08-27T19:59:43.585Z,22.10
2022-08-27T20:02:31.495Z,22.10
2022-08-27T20:05:20.389Z,22.00
2022-08-27T20:08:08.364Z,21.90
2022-08-27T20:10:57.383Z,21.80
2022-08-27T20:13:50.404Z,21.70
2022-08-27T20:16:38.474Z,21.50
2022-08-27T20:19:26.146Z,21.40
2022-08-27T20:22:14.497Z,21.30
2022-08-27T20:25:02.201Z,21.20
2022-08-27T20:27:52.150Z,21.00
2022-08-27T20:30:40.579Z,20.90
2022-08-27T20:33:32.752Z,20.80
2022-08-27T20:36:21.272Z,20.70
2022-08-27T20:39:09.027Z,20.70
2022-08-27T20:41:56.615Z,20.70
2022-08-27T20:44:45.575Z,20.70
2022-08-27T20:47:33.656Z,20.70
2022-08-27T20:50:23.004Z,20.60
2022-08-27T20:53:10.836Z,20.60
2022-08-27T20:55:58.855Z,20.50
2022-08-27T20:59:00.229Z,20.40
2022-08-27T21:01:47.928Z,20.30
2022-08-27T21:04:39.249Z,20.20
2022-08-27T21:07:25.877Z,20.10
2022-08-27T21:10:13.861Z,19.90
2022-08-27T21:13:04.493Z,20.00
2022-08-27T21:15:54.663Z,19.90
2022-08-27T21:18:45.861Z,19.80
2022-08-27T21:21:33.706Z,19.80
2022-08-27T21:24:22.224Z,19.80
2022-08-27T21:27:09.695Z,19.80
2022-08-27T21:29:57.048Z,19.70
2022-08-27T21:32:45.016Z,19.70
2022-08-27T21:35:34.169Z,19.70
2022-08-27T21:38:21.999Z,19.70
2022-08-27T21:41:09.528Z,19.70
2022-08-27T21:43:57.181Z,19.60
2022-08-27T21:46:45.031Z,19.60
2022-08-27T21:49:33.160Z,19.60
2022-08-27T21:52:22.370Z,19.50
2022-08-27T21:55:10.770Z,19.40
2022-08-27T21:57:58.351Z,19.30
2022-08-27T22:00:48.271Z,19.30
2022-08-27T22:03:37.457Z,19.30
2022-08-27T22:06:25.113Z,19.30
2022-08-27T22:09:14.358Z,19.30
2022-08-27T22:12:03.389Z,19.30
2022-08-27T22:14:51.019Z,19.20
2022-08-27T22:17:39.209Z,19.20
2022-08-27T22:20:26.889Z,19.20
2022-08-27T22:23:15.447Z,19.20
2022-08-27T22:26:05.250Z,19.20
2022-08-27T22:28:53.098Z,19.10
2022-08-27T22:31:41.059Z,19.10
2022-08-27T22:34:28.973Z,19.10
2022-08-27T22:37:16.454Z,19.10
2022-08-27T22:40:05.496Z,19.00
2022-08-27T22:42:54.884Z,19.00
2022-08-27T22:45:42.486Z,19.00
2022-08-27T22:48:30.553Z,19.00
2022-08-27T22:51:18.535Z,19.00
2022-08-27T22:54:06.077Z,19.00
2022-08-27T22:56:53.889Z,19.00
2022-08-27T22:59:43.559Z,19.00
2022-08-27T23:02:31.110Z,19.00
2022-08-27T23:05:19.778Z,19.00
2022-08-27T23:08:10.316Z,19.00
2022-08-27T23:10:57.931Z,19.00
2022-08-27T23:13:45.481Z,19.00
2022-08-27T23:16:37.422Z,19.00
2022-08-27T23:19:24.972Z,19.00
2022-08-27T23:22:12.623Z,19.00
2022-08-27T23:25:14.124Z,19.00
2022-08-27T23:28:04.691Z,18.90
2022-08-27T23:30:53.168Z,18.90
2022-08-27T23:33:41.485Z,18.90
2022-08-27T23:36:29.196Z,18.90
2022-08-27T23:39:17.247Z,18.90
2022-08-27T23:42:05.051Z,18.90
2022-08-27T23:44:52.640Z,18.90
2022-08-27T23:47:40.302Z,18.80
2022-08-27T23:50:33.846Z,18.80
2022-08-27T23:53:21.883Z,18.90
2022-08-27T23:56:10.828Z,18.80
2022-08-27T23:59:00.152Z,18.80
